Time;durP1;ratioP1;P1;durP2;ratioP2;P2;SDS_P1;SDS_P2;PMS_P1;PMS_P2;Temp;Humidity;BMP_temperature;BMP_pressure;BME280_temperature;BME280_humidity;BME280_pressure;Samples;Min_cycle;Max_cycle;Signal;HPM_P1;HPM_P2
2024/04/11 00:02:36;;;;;;;;;;;;;;;18.20;46.96;101049.59;11177551;26;831;-71
2024/04/11 00:07:32;;;;;;;;;;;;;;;18.18;46.74;101042.59;11178821;26;851;-70
2024/04/11 00:12:28;;;;;;;;;;;;;;;18.17;46.78;101042.59;11178668;26;1849;-71
2024/04/11 00:17:24;;;;;;;;;;;;;;;18.15;46.82;101034.72;11178006;26;933;-70
2024/04/11 00:22:21;;;;;;;;;;;;;;;18.14;46.46;101046.19;11177859;26;863;-71
2024/04/11 00:27:16;;;;;;;;;;;;;;;18.12;46.63;101055.91;11177741;26;1346;-70
2024/04/11 00:32:12;;;;;;;;;;;;;;;18.11;46.71;101056.81;11177247;26;1843;-71
2024/04/11 00:37:11;;;;;;;;;;;;;;;18.10;46.88;101062.13;11176780;26;1020;-70
2024/04/11 00:42:07;;;;;;;;;;;;;;;18.09;46.78;101061.25;11176621;26;884;-70
2024/04/11 00:47:03;;;;;;;;;;;;;;;18.07;46.98;101065.69;11176591;26;839;-71
2024/04/11 00:51:59;;;;;;;;;;;;;;;18.06;47.09;101077.16;11176264;26;1853;-70
2024/04/11 00:56:58;;;;;;;;;;;;;;;18.05;46.94;101096.56;11176286;26;891;-70
2024/04/11 01:01:54;;;;;;;;;;;;;;;18.03;47.08;101089.56;11176048;26;877;-70
2024/04/11 01:07:09;;;;;;;;;;;;;;;18.02;46.56;101086.03;11175744;26;837;-70
2024/04/11 01:12:05;;;;;;;;;;;;;;;18.01;46.98;101086.97;11175614;26;1826;-70
2024/04/11 01:17:01;;;;;;;;;;;;;;;18.00;46.85;101087.88;11175657;26;873;-71
2024/04/11 01:21:57;;;;;;;;;;;;;;;17.98;46.86;101087.03;11176170;26;894;-70
2024/04/11 01:26:54;;;;;;;;;;;;;;;17.96;47.06;101089.69;11175367;26;1018;-70
2024/04/11 01:31:50;;;;;;;;;;;;;;;17.95;46.74;101076.56;11174899;26;1852;-70
2024/04/11 01:36:46;;;;;;;;;;;;;;;17.94;46.79;101083.56;11175245;26;903;-70
2024/04/11 01:41:42;;;;;;;;;;;;;;;17.93;46.69;101078.34;11175595;26;954;-71
2024/04/11 01:46:38;;;;;;;;;;;;;;;17.92;46.48;101066.03;11174836;26;947;-70
2024/04/11 01:51:33;;;;;;;;;;;;;;;17.91;46.83;101066.97;11175271;26;1834;-70
2024/04/11 01:56:34;;;;;;;;;;;;;;;17.90;47.17;101059.97;11175164;26;894;-70
2024/04/11 02:01:34;;;;;;;;;;;;;;;17.88;46.41;101077.59;11174343;26;875;-70
2024/04/11 02:06:30;;;;;;;;;;;;;;;17.87;46.60;101074.09;11174256;26;951;-70
2024/04/11 02:11:26;;;;;;;;;;;;;;;17.86;47.08;101079.38;11173884;26;1853;-70
2024/04/11 02:16:23;;;;;;;;;;;;;;;17.86;46.78;101084.66;11173814;26;812;-71
2024/04/11 02:21:19;;;;;;;;;;;;;;;17.85;46.95;101085.56;11172898;26;885;-70
2024/04/11 02:26:15;;;;;;;;;;;;;;;17.84;46.92;101083.81;11173563;26;875;-70
2024/04/11 02:31:11;;;;;;;;;;;;;;;17.84;46.53;101086.47;11173891;26;1839;-70
2024/04/11 02:36:08;;;;;;;;;;;;;;;17.84;46.70;101094.38;11173441;26;1129;-70
2024/04/11 02:41:06;;;;;;;;;;;;;;;17.84;46.31;101097.00;11173609;26;1025;-70
2024/04/11 02:46:02;;;;;;;;;;;;;;;17.84;46.65;101092.63;11172765;26;927;-70
2024/04/11 02:50:58;;;;;;;;;;;;;;;17.84;47.01;101092.63;11172549;26;1833;-70
2024/04/11 02:55:54;;;;;;;;;;;;;;;17.86;47.01;101085.53;11173195;26;871;-70
2024/04/11 03:00:52;;;;;;;;;;;;;;;17.86;46.43;101092.56;11172952;26;831;-70
2024/04/11 03:05:48;;;;;;;;;;;;;;;17.86;46.23;101087.28;11171899;26;821;-70
2024/04/11 03:10:44;;;;;;;;;;;;;;;17.87;46.85;101071.44;11171832;26;1855;-71
2024/04/11 03:15:40;;;;;;;;;;;;;;;17.88;46.80;101075.81;11172381;26;888;-70
2024/04/11 03:20:36;;;;;;;;;;;;;;;17.89;46.38;101076.66;11171473;26;1043;-70
2024/04/11 03:25:31;;;;;;;;;;;;;;;17.90;46.82;101065.25;11171313;26;1690;-71
2024/04/11 03:30:29;;;;;;;;;;;;;;;17.90;46.95;101075.78;11171549;26;1863;-70
2024/04/11 03:35:25;;;;;;;;;;;;;;;17.90;46.73;101073.16;11174974;26;903;-70
2024/04/11 03:40:21;;;;;;;;;;;;;;;17.90;46.67;101071.38;11179066;26;858;-70
2024/04/11 03:45:22;;;;;;;;;;;;;;;17.91;46.63;101072.25;11179301;26;843;-70
2024/04/11 03:50:19;;;;;;;;;;;;;;;17.91;46.81;101080.16;11178694;26;1841;-70
2024/04/11 03:55:15;;;;;;;;;;;;;;;17.92;46.56;101081.88;11179341;26;945;-71
2024/04/11 04:00:11;;;;;;;;;;;;;;;17.95;46.79;101073.91;11179207;26;913;-71
2024/04/11 04:05:09;;;;;;;;;;;;;;;17.95;46.42;101071.28;11179046;26;844;-70
2024/04/11 04:10:05;;;;;;;;;;;;;;;17.97;46.84;101072.09;11178038;26;1837;-70
2024/04/11 04:15:05;;;;;;;;;;;;;;;17.98;46.04;101076.47;11178080;26;1169;-70
2024/04/11 04:20:03;;;;;;;;;;;;;;;18.01;46.37;101086.09;11178308;26;867;-70
2024/04/11 04:24:59;;;;;;;;;;;;;;;18.02;46.48;101072.84;11177900;26;864;-70
2024/04/11 04:29:55;;;;;;;;;;;;;;;18.04;45.98;101067.56;11177803;26;1829;-70
2024/04/11 04:34:51;;;;;;;;;;;;;;;18.05;46.41;101064.88;11177527;26;1001;-70
2024/04/11 04:39:47;;;;;;;;;;;;;;;18.06;46.11;101061.34;11177365;26;915;-70
2024/04/11 04:44:43;;;;;;;;;;;;;;;18.08;46.58;101048.97;11176890;26;813;-70
2024/04/11 04:49:41;;;;;;;;;;;;;;;18.09;46.36;101049.84;11177159;26;884;-70
2024/04/11 04:54:37;;;;;;;;;;;;;;;18.09;46.36;101037.50;11176279;26;1833;-70
2024/04/11 04:59:33;;;;;;;;;;;;;;;18.12;46.23;101026.88;11176199;26;1047;-70
2024/04/11 05:04:29;;;;;;;;;;;;;;;18.13;46.03;101033.00;11176116;26;934;-70
2024/04/11 05:09:26;;;;;;;;;;;;;;;18.13;46.31;101033.00;11176202;26;894;-70
2024/04/11 05:14:23;;;;;;;;;;;;;;;18.14;46.21;101030.34;11175725;26;1842;-70
2024/04/11 05:19:20;;;;;;;;;;;;;;;18.15;46.12;101040.00;11175612;26;873;-70
2024/04/11 05:24:16;;;;;;;;;;;;;;;18.16;46.19;101035.59;11176052;26;1023;-70
2024/04/11 05:29:12;;;;;;;;;;;;;;;18.16;45.92;101046.16;11175431;26;856;-70
2024/04/11 05:34:09;;;;;;;;;;;;;;;18.17;46.03;101045.25;11176287;26;1838;-71
2024/04/11 05:39:05;;;;;;;;;;;;;;;18.18;46.21;101039.06;11176191;26;836;-73
2024/04/11 05:44:01;;;;;;;;;;;;;;;18.19;46.45;101040.81;11175513;26;867;-70
2024/04/11 05:48:57;;;;;;;;;;;;;;;18.22;46.25;101047.78;11175369;26;858;-71
2024/04/11 05:53:53;;;;;;;;;;;;;;;18.21;46.39;101051.31;11175181;26;1826;-71
2024/04/11 05:58:52;;;;;;;;;;;;;;;18.22;45.73;101053.06;11173860;26;982;-71
2024/04/11 06:03:50;;;;;;;;;;;;;;;18.22;46.27;101053.91;11174938;26;1561;-71
2024/04/11 06:08:46;;;;;;;;;;;;;;;18.22;45.79;101053.91;11174869;26;1066;-71
2024/04/11 06:13:41;;;;;;;;;;;;;;;18.21;46.30;101053.94;11174521;26;1825;-71
2024/04/11 06:18:38;;;;;;;;;;;;;;;18.20;45.86;101060.13;11174520;26;961;-70
2024/04/11 06:23:35;;;;;;;;;;;;;;;18.18;45.67;101063.69;11174250;26;875;-71
2024/04/11 06:28:33;;;;;;;;;;;;;;;18.17;45.82;101064.56;11174144;26;837;-71
2024/04/11 06:33:31;;;;;;;;;;;;;;;18.16;45.77;101073.41;11173584;26;1829;-71
2024/04/11 06:38:31;;;;;;;;;;;;;;;18.15;45.93;101076.06;11170154;26;1385;-70
2024/04/11 06:43:26;;;;;;;;;;;;;;;18.15;45.80;101082.22;11172284;26;995;-71
2024/04/11 06:48:23;;;;;;;;;;;;;;;18.14;45.89;101085.78;11172690;26;879;-71
2024/04/11 06:53:18;;;;;;;;;;;;;;;18.14;46.09;101096.31;11172494;26;1837;-72
2024/04/11 06:58:20;;;;;;;;;;;;;;;18.11;45.60;101091.13;11172455;26;950;-72
2024/04/11 07:03:16;;;;;;;;;;;;;;;18.12;45.74;101100.75;11173000;26;778;-72
2024/04/11 07:08:14;;;;;;;;;;;;;;;18.11;45.66;101100.81;11174017;26;913;-71
2024/04/11 07:13:10;;;;;;;;;;;;;;;18.12;45.75;101105.19;11178885;26;1826;-70
2024/04/11 07:18:14;;;;;;;;;;;;;;;18.13;45.44;101106.91;11179924;26;855;-70
2024/04/11 07:23:10;;;;;;;;;;;;;;;18.13;45.71;101118.34;11179044;26;924;-71
2024/04/11 07:28:07;;;;;;;;;;;;;;;18.13;45.62;101115.72;11178989;26;864;-71
2024/04/11 07:33:06;;;;;;;;;;;;;;;18.15;45.65;101119.16;11179415;26;1943;-71
2024/04/11 07:38:02;;;;;;;;;;;;;;;18.15;45.56;101120.94;11179227;26;868;-71
2024/04/11 07:43:05;;;;;;;;;;;;;;;18.15;45.86;101129.72;11179043;26;942;-71
2024/04/11 07:48:02;;;;;;;;;;;;;;;18.17;45.59;101142.88;11178978;26;1008;-71
2024/04/11 07:52:58;;;;;;;;;;;;;;;18.17;45.77;101141.09;11178735;26;1844;-71
2024/04/11 07:57:54;;;;;;;;;;;;;;;18.18;45.43;101149.88;11178742;26;891;-71
2024/04/11 08:02:49;;;;;;;;;;;;;;;18.18;45.54;101149.88;11179295;26;875;-71
2024/04/11 08:07:45;;;;;;;;;;;;;;;18.17;45.55;101154.31;11178500;26;855;-71
2024/04/11 08:12:41;;;;;;;;;;;;;;;18.19;45.38;101167.47;11178221;26;1844;-71
2024/04/11 08:17:37;;;;;;;;;;;;;;;18.20;45.49;101168.34;11178909;26;824;-71
2024/04/11 08:22:33;;;;;;;;;;;;;;;18.20;45.74;101169.19;11177803;26;832;-71
2024/04/11 08:27:29;;;;;;;;;;;;;;;18.20;45.34;101173.63;11177922;26;939;-71
2024/04/11 08:32:25;;;;;;;;;;;;;;;18.22;45.46;101171.81;11176976;26;1833;-71
2024/04/11 08:37:22;;;;;;;;;;;;;;;18.21;45.75;101172.69;11176902;26;820;-71
2024/04/11 08:42:18;;;;;;;;;;;;;;;18.22;45.47;101192.94;11177051;26;899;-71
2024/04/11 08:47:14;;;;;;;;;;;;;;;18.23;45.63;101192.03;11176597;26;868;-71
2024/04/11 08:52:10;;;;;;;;;;;;;;;18.24;45.54;101191.13;11177058;26;1881;-71
2024/04/11 08:57:08;;;;;;;;;;;;;;;18.23;45.60;101190.25;11176944;26;1026;-71
2024/04/11 09:02:05;;;;;;;;;;;;;;;18.25;45.39;101203.41;11176264;26;812;-73
2024/04/11 09:07:01;;;;;;;;;;;;;;;18.26;45.61;101206.03;11175909;26;832;-71
2024/04/11 09:11:58;;;;;;;;;;;;;;;18.27;45.73;101201.63;11175765;26;1845;-69
2024/04/11 09:16:53;;;;;;;;;;;;;;;18.28;45.79;101216.53;11175728;26;832;-71
2024/04/11 09:21:49;;;;;;;;;;;;;;;18.29;45.57;101223.56;11175640;26;890;-72
2024/04/11 09:26:46;;;;;;;;;;;;;;;18.30;45.64;101223.53;11175456;26;1007;-71
2024/04/11 09:31:42;;;;;;;;;;;;;;;18.31;45.69;101224.38;11174207;26;1834;-72
2024/04/11 09:36:38;;;;;;;;;;;;;;;18.32;45.64;101221.72;11175821;26;887;-72
2024/04/11 09:41:34;;;;;;;;;;;;;;;18.33;45.90;101218.16;11175716;26;898;-72
2024/04/11 09:46:31;;;;;;;;;;;;;;;18.33;46.11;101218.16;11176159;26;903;-75
2024/04/11 09:51:28;;;;;;;;;;;;;;;18.34;45.53;101219.94;11175373;26;1825;-75
2024/04/11 09:56:24;;;;;;;;;;;;;;;18.36;45.60;101206.69;11175988;26;894;-72
2024/04/11 10:01:37;;;;;;;;;;;;;;;18.36;45.67;101198.75;11175805;26;908;-71
2024/04/11 10:06:35;;;;;;;;;;;;;;;18.35;45.63;101195.25;11175638;26;826;-71
2024/04/11 10:11:31;;;;;;;;;;;;;;;18.39;45.80;101202.22;11174585;26;1849;-71
2024/04/11 10:16:30;;;;;;;;;;;;;;;18.39;45.85;101188.13;11175918;26;839;-71
2024/04/11 10:21:26;;;;;;;;;;;;;;;18.40;45.73;101190.75;11174475;26;867;-70
2024/04/11 10:26:22;;;;;;;;;;;;;;;18.41;45.71;101199.53;11174297;26;892;-72
2024/04/11 10:31:22;;;;;;;;;;;;;;;18.42;45.85;101198.66;11173449;26;1851;-71
2024/04/11 10:36:18;;;;;;;;;;;;;;;18.42;45.92;101203.91;11173278;26;870;-71
2024/04/11 10:41:19;;;;;;;;;;;;;;;18.45;45.95;101217.03;11173001;26;880;-71
2024/04/11 10:46:20;;;;;;;;;;;;;;;18.45;45.62;101222.31;11172301;26;727;-71
2024/04/11 10:51:16;;;;;;;;;;;;;;;18.47;45.73;101228.44;11173594;26;1845;-71
2024/04/11 10:56:21;;;;;;;;;;;;;;;18.49;45.47;101233.69;11172561;26;880;-71
2024/04/11 11:01:17;;;;;;;;;;;;;;;18.50;45.77;101232.78;11172945;26;910;-72
2024/04/11 11:06:13;;;;;;;;;;;;;;;18.49;45.70;101231.91;11172160;26;1254;-73
2024/04/11 11:11:11;;;;;;;;;;;;;;;18.48;45.95;101230.16;11172006;26;1822;-73
2024/04/11 11:16:07;;;;;;;;;;;;;;;18.46;45.73;101234.63;11172491;26;1553;-71
2024/04/11 11:21:07;;;;;;;;;;;;;;;18.47;45.37;101236.38;11172256;26;883;-71
2024/04/11 11:26:03;;;;;;;;;;;;;;;18.46;45.78;101239.03;11172041;26;913;-71
2024/04/11 12:04:00;;;;;;;;;;;;;;;18.45;46.29;101261.94;11137055;25;1407;-70
2024/04/11 12:09:00;;;;;;;;;;;;;;;18.44;45.89;101270.72;11136620;26;1067;-70
2024/04/11 12:14:02;;;;;;;;;;;;;;;18.44;45.87;101268.09;11136863;26;1118;-71
2024/04/11 12:18:58;;;;;;;;;;;;;;;18.45;46.09;101269.00;11135950;26;1842;-71
2024/04/11 12:23:54;;;;;;;;;;;;;;;18.46;45.99;101268.94;11137475;26;846;-71
2024/04/11 12:28:50;;;;;;;;;;;;;;;18.46;45.90;101271.56;11136686;26;887;-69
2024/04/11 12:33:46;;;;;;;;;;;;;;;18.47;46.01;101278.63;11136530;26;852;-70
2024/04/11 12:38:42;;;;;;;;;;;;;;;18.48;45.89;101269.78;11136871;26;1857;-71
2024/04/11 12:43:38;;;;;;;;;;;;;;;18.48;46.11;101280.34;11136839;26;884;-72
2024/04/11 12:48:34;;;;;;;;;;;;;;;18.46;46.27;101290.06;11136747;26;831;-70
2024/04/11 12:53:31;;;;;;;;;;;;;;;18.48;45.76;101274.19;11136607;26;1157;-79
2024/04/11 12:58:28;;;;;;;;;;;;;;;18.51;46.12;101267.06;11136243;26;937;-71
2024/04/11 13:03:34;;;;;;;;;;;;;;;18.56;45.98;101272.25;11113874;26;1838;-71
2024/04/11 13:08:30;;;;;;;;;;;;;;;18.57;46.07;101268.69;11104151;26;923;-70
2024/04/11 13:13:29;;;;;;;;;;;;;;;18.60;45.95;101261.59;11103789;26;894;-70
2024/04/11 13:18:28;;;;;;;;;;;;;;;18.59;46.01;101262.47;11104349;26;1011;-71
2024/04/11 13:23:24;;;;;;;;;;;;;;;18.66;46.24;101259.72;11103520;26;1925;-71
2024/04/11 13:28:28;;;;;;;;;;;;;;;18.66;45.82;101263.22;11103461;26;921;-71
2024/04/11 13:33:30;;;;;;;;;;;;;;;18.68;45.95;101239.41;11103597;26;809;-70
2024/04/11 13:38:37;;;;;;;;;;;;;;;18.69;46.14;101252.59;11103205;26;847;-71
2024/04/11 13:43:39;;;;;;;;;;;;;;;18.70;45.86;101243.75;11103042;26;939;-71
2024/04/11 13:48:36;;;;;;;;;;;;;;;18.75;45.90;101247.19;11103466;26;1059;-71
2024/04/11 13:53:36;;;;;;;;;;;;;;;18.78;45.81;101255.03;11102726;26;919;-71
2024/04/11 13:58:36;;;;;;;;;;;;;;;18.83;45.94;101245.22;11102516;26;835;-71
2024/04/11 14:08:37;;;;;;;;;;;;;;;18.85;46.20;101234.63;11083790;26;1978;-71
2024/04/11 14:13:41;;;;;;;;;;;;;;;18.87;46.11;101227.53;11079959;26;919;-76
2024/04/11 14:18:37;;;;;;;;;;;;;;;18.87;45.76;101230.19;11055486;26;2002;-71
2024/04/11 14:23:47;;;;;;;;;;;;;;;18.96;45.80;101229.09;11100917;26;1851;-71
2024/04/11 14:28:43;;;;;;;;;;;;;;;18.97;45.86;101222.91;11102058;26;723;-71
2024/04/11 14:34:19;;;;;;;;;;;;;;;18.92;45.53;101228.31;11100850;26;908;-71
2024/04/11 14:39:07;;;;;;;;;;;;;;;18.88;46.12;101241.63;11100904;26;1998;-70
2024/04/11 14:44:08;;;;;;;;;;;;;;;18.85;46.07;101237.28;11100620;26;815;-71
2024/04/11 14:49:04;;;;;;;;;;;;;;;18.83;45.92;101241.72;11100643;26;818;-72
2024/04/11 14:54:05;;;;;;;;;;;;;;;18.83;45.99;101231.16;11100837;26;872;-72
2024/04/11 14:59:01;;;;;;;;;;;;;;;18.81;46.26;101230.31;11100780;26;1826;-72
2024/04/11 15:04:04;;;;;;;;;;;;;;;18.80;46.33;101229.44;11101149;26;1247;-72
2024/04/11 15:09:26;;;;;;;;;;;;;;;18.79;46.28;101238.28;11101012;26;921;-71
2024/04/11 15:14:18;;;;;;;;;;;;;;;18.77;46.23;101229.53;11100338;26;1820;-72
2024/04/11 15:19:15;;;;;;;;;;;;;;;18.78;46.56;101235.66;11100130;26;1847;-71
2024/04/11 15:24:18;;;;;;;;;;;;;;;18.77;46.39;101233.94;11100298;26;933;-71
2024/04/11 15:29:21;;;;;;;;;;;;;;;18.75;46.43;101222.53;11099946;26;949;-73
2024/04/11 15:34:17;;;;;;;;;;;;;;;18.75;46.05;101222.53;11099766;26;1179;-71
2024/04/11 15:39:16;;;;;;;;;;;;;;;18.75;46.15;101231.34;11099563;26;1818;-71
2024/04/11 15:44:12;;;;;;;;;;;;;;;18.74;46.36;101232.22;11099348;26;809;-71
2024/04/11 15:49:07;;;;;;;;;;;;;;;18.75;46.27;101228.69;11099151;26;872;-71
2024/04/11 15:54:16;;;;;;;;;;;;;;;18.74;46.40;101234.00;11099007;26;876;-71
2024/04/11 15:59:17;;;;;;;;;;;;;;;18.72;46.38;101228.72;11098419;26;1818;-73
2024/04/11 16:04:15;;;;;;;;;;;;;;;18.72;46.39;101233.16;11098704;26;959;-71
2024/04/11 16:09:12;;;;;;;;;;;;;;;18.71;46.70;101223.50;11098465;26;817;-71
2024/04/11 16:14:08;;;;;;;;;;;;;;;18.70;46.34;101222.59;11098357;26;998;-71
2024/04/11 16:19:04;;;;;;;;;;;;;;;18.71;46.95;101218.22;11098639;26;1837;-70
2024/04/11 16:23:59;;;;;;;;;;;;;;;18.71;47.14;101226.16;11098487;26;891;-71
2024/04/11 16:28:55;;;;;;;;;;;;;;;18.71;46.50;101227.00;11097676;26;1060;-71
2024/04/11 16:33:51;;;;;;;;;;;;;;;18.70;46.98;101227.91;11097536;26;1116;-71
2024/04/11 16:38:47;;;;;;;;;;;;;;;18.68;46.68;101235.00;11102956;26;1841;-72
2024/04/11 16:43:43;;;;;;;;;;;;;;;18.68;46.55;101244.69;11104644;26;864;-73
2024/04/11 16:48:42;;;;;;;;;;;;;;;18.67;46.82;101243.81;11104632;26;818;-71
2024/04/11 16:53:46;;;;;;;;;;;;;;;18.67;46.97;101253.53;11104529;26;821;-72
2024/04/11 16:58:52;;;;;;;;;;;;;;;18.65;47.02;101250.03;11104406;26;1817;-71
2024/04/11 17:03:54;;;;;;;;;;;;;;;18.65;46.98;101255.31;11103349;26;1773;-71
2024/04/11 17:08:55;;;;;;;;;;;;;;;18.65;46.71;101250.91;11104037;26;872;-71
2024/04/11 17:13:54;;;;;;;;;;;;;;;18.65;47.04;101260.59;11103312;26;795;-71
2024/04/11 17:18:53;;;;;;;;;;;;;;;18.64;47.00;101256.25;11102991;26;1822;-71
2024/04/11 17:23:48;;;;;;;;;;;;;;;18.62;46.97;101257.13;11102824;26;896;-72
2024/04/11 17:28:46;;;;;;;;;;;;;;;18.64;46.73;101258.88;11103265;26;949;-72
2024/04/11 17:33:42;;;;;;;;;;;;;;;18.65;47.08;101261.47;11102711;26;855;-71
2024/04/11 17:38:59;;;;;;;;;;;;;;;18.65;47.00;101258.81;11102564;26;901;-72
2024/04/11 17:43:58;;;;;;;;;;;;;;;18.65;46.64;101263.25;11102419;26;859;-71
2024/04/11 17:48:56;;;;;;;;;;;;;;;18.64;46.78;101259.75;11102767;26;833;-72
2024/04/11 17:53:56;;;;;;;;;;;;;;;18.66;47.08;101259.72;11102073;26;871;-71
2024/04/11 17:58:52;;;;;;;;;;;;;;;18.66;46.94;101251.78;11102239;26;1838;-71
2024/04/11 18:03:52;;;;;;;;;;;;;;;18.66;46.98;101246.50;11102215;26;1178;-71
2024/04/11 18:08:48;;;;;;;;;;;;;;;18.67;46.84;101248.25;11102277;26;812;-71
2024/04/11 18:13:44;;;;;;;;;;;;;;;18.66;47.08;101257.06;11102835;26;873;-72
2024/04/11 18:18:47;;;;;;;;;;;;;;;18.67;46.84;101272.00;11102086;26;735;-72
2024/04/11 18:23:42;;;;;;;;;;;;;;;18.67;47.04;101274.66;11102558;26;866;-71
2024/04/11 18:28:39;;;;;;;;;;;;;;;18.67;46.55;101278.16;11101733;26;910;-71
2024/04/11 18:33:37;;;;;;;;;;;;;;;18.67;46.96;101280.78;11101597;26;878;-72
2024/04/11 18:38:33;;;;;;;;;;;;;;;18.67;46.98;101288.72;11101431;26;820;-72
2024/04/11 18:43:29;;;;;;;;;;;;;;;18.67;46.80;101287.84;11101253;26;1826;-72
2024/04/11 18:48:37;;;;;;;;;;;;;;;18.68;46.97;101281.66;11101140;26;934;-72
2024/04/11 18:53:36;;;;;;;;;;;;;;;18.69;47.13;101294.84;11101652;26;905;-71
2024/04/11 18:58:35;;;;;;;;;;;;;;;18.69;46.91;101299.25;11100091;26;930;-72
2024/04/11 19:03:31;;;;;;;;;;;;;;;18.69;46.98;101300.13;11101045;26;1833;-71
2024/04/11 19:08:33;;;;;;;;;;;;;;;18.71;47.02;101302.75;11101217;26;822;-72
2024/04/11 19:13:31;;;;;;;;;;;;;;;18.70;47.08;101306.28;11101035;26;921;-72
2024/04/11 19:18:26;;;;;;;;;;;;;;;18.70;46.97;101307.13;11100289;26;885;-72
2024/04/11 19:23:26;;;;;;;;;;;;;;;18.71;47.14;101310.66;11100004;26;1833;-72
2024/04/11 19:28:22;;;;;;;;;;;;;;;18.72;47.36;101304.47;11100023;26;852;-72
2024/04/11 19:33:24;;;;;;;;;;;;;;;18.71;46.91;101303.59;11099816;26;891;-72
2024/04/11 19:38:29;;;;;;;;;;;;;;;18.72;47.07;101307.09;11099634;26;882;-71
2024/04/11 19:43:26;;;;;;;;;;;;;;;18.71;47.34;101311.53;11099603;26;1833;-71
2024/04/11 19:48:28;;;;;;;;;;;;;;;18.71;47.07;101308.88;11099325;26;870;-71
2024/04/11 19:53:31;;;;;;;;;;;;;;;18.70;47.17;101307.13;11100011;26;901;-71
2024/04/11 19:58:27;;;;;;;;;;;;;;;18.70;46.77;101304.50;11098848;26;932;-71
2024/04/11 20:03:29;;;;;;;;;;;;;;;18.70;47.01;101304.50;11098236;26;1814;-71
2024/04/11 20:08:25;;;;;;;;;;;;;;;18.70;47.12;101301.00;11098460;26;842;-72
2024/04/11 20:18:43;;;;;;;;;;;;;;;18.68;47.09;101311.59;11106398;26;605;-72
2024/04/11 20:23:40;;;;;;;;;;;;;;;18.69;47.33;101315.09;11105419;26;836;-72
2024/04/11 20:28:38;;;;;;;;;;;;;;;18.68;47.12;101308.06;11105358;26;1568;-72
2024/04/11 20:33:34;;;;;;;;;;;;;;;18.68;46.97;101308.06;11105111;26;863;-72
2024/04/11 20:38:36;;;;;;;;;;;;;;;18.67;47.20;101301.91;11105007;26;888;-71
2024/04/11 20:43:56;;;;;;;;;;;;;;;18.67;47.19;101307.22;11104870;26;1832;-71
2024/04/11 21:35:53;;;;;;;;;;;;;;;18.58;46.89;101288.94;11103433;26;693;-70
2024/04/11 21:40:48;;;;;;;;;;;;;;;18.57;46.96;101290.69;11102946;26;1828;-71
2024/04/11 21:45:45;;;;;;;;;;;;;;;18.56;46.82;101294.25;11103516;26;807;-71
2024/04/11 21:50:42;;;;;;;;;;;;;;;18.55;47.10;101297.78;11102974;26;878;-71
2024/04/11 21:55:38;;;;;;;;;;;;;;;18.53;47.27;101299.59;11102608;26;940;-70
2024/04/11 22:01:01;;;;;;;;;;;;;;;18.53;46.93;101293.44;11102170;26;1867;-70
2024/04/11 22:06:00;;;;;;;;;;;;;;;18.50;47.20;101291.75;11102940;26;886;-71
2024/04/11 22:11:01;;;;;;;;;;;;;;;18.49;47.29;101305.81;11103440;26;945;-70
2024/04/11 22:16:02;;;;;;;;;;;;;;;18.47;47.10;101296.19;11102850;26;867;-71
2024/04/11 22:21:14;;;;;;;;;;;;;;;18.48;47.27;101301.47;11102656;26;1840;-71
2024/04/11 22:26:17;;;;;;;;;;;;;;;18.45;47.20;101296.25;11103213;26;1282;-71
2024/04/11 22:31:16;;;;;;;;;;;;;;;18.44;47.05;101289.22;11102243;26;1664;-70
2024/04/11 22:41:23;;;;;;;;;;;;;;;18.42;46.99;101291.03;11101818;26;1848;-70
2024/04/11 22:46:30;;;;;;;;;;;;;;;18.41;47.07;101294.56;11101758;26;887;-70
2024/04/11 22:51:26;;;;;;;;;;;;;;;18.40;46.96;101292.84;11101680;26;828;-70
2024/04/11 22:56:33;;;;;;;;;;;;;;;18.38;47.08;101299.91;11102141;26;855;-70
2024/04/11 23:01:35;;;;;;;;;;;;;;;18.37;47.33;101309.63;11100738;26;1828;-70
2024/04/11 23:06:31;;;;;;;;;;;;;;;18.36;47.35;101321.06;11100591;26;903;-70
2024/04/11 23:11:27;;;;;;;;;;;;;;;18.35;47.12;101315.81;11100460;26;949;-70
2024/04/11 23:16:34;;;;;;;;;;;;;;;18.34;47.33;101322.03;11100254;26;942;-70
2024/04/11 23:21:30;;;;;;;;;;;;;;;18.33;47.19;101317.63;11100790;26;1836;-70
2024/04/11 23:26:29;;;;;;;;;;;;;;;18.32;47.43;101323.81;11100597;26;898;-70
2024/04/11 23:31:25;;;;;;;;;;;;;;;18.31;47.01;101320.31;11100123;26;806;-70
2024/04/11 23:36:21;;;;;;;;;;;;;;;18.29;46.89;101319.47;11099670;26;866;-70
2024/04/11 23:41:22;;;;;;;;;;;;;;;18.29;47.35;101316.81;11099423;26;1828;-71
2024/04/11 23:46:27;;;;;;;;;;;;;;;18.27;47.37;101313.34;11099826;26;759;-70
2024/04/11 23:51:23;;;;;;;;;;;;;;;18.27;47.23;101312.47;11099418;26;936;-70
2024/04/11 23:56:19;;;;;;;;;;;;;;;18.25;47.60;101312.50;11099468;26;841;-70
